createdAt,value
2019-05-11T00:06:50.096Z,9.77
2019-05-11T00:09:25.060Z,8.83
2019-05-11T00:11:56.387Z,9.30
2019-05-11T00:14:51.489Z,10.17
2019-05-11T00:17:22.638Z,9.47
2019-05-11T00:19:56.672Z,8.73
2019-05-11T00:22:38.542Z,8.90
2019-05-11T00:25:10.784Z,9.70
2019-05-11T00:28:20.558Z,10.17
2019-05-11T00:30:50.982Z,9.80
2019-05-11T00:33:19.675Z,10.10
2019-05-11T00:39:02.419Z,9.03
2019-05-11T00:41:34.524Z,9.77
2019-05-11T00:44:11.907Z,9.63
2019-05-11T00:46:43.290Z,9.70
2019-05-11T00:58:50.951Z,10.80
2019-05-11T01:01:20.536Z,9.80
2019-05-11T01:04:08.786Z,9.87
2019-05-11T01:06:41.680Z,10.67
2019-05-11T01:09:13.221Z,10.40
2019-05-11T01:11:42.596Z,11.33
2019-05-11T01:21:11.209Z,9.83
2019-05-11T01:23:48.856Z,10.60
2019-05-11T01:26:18.740Z,10.60
2019-05-11T01:28:48.515Z,10.97
2019-05-11T01:31:18.220Z,9.20
2019-05-11T01:33:47.323Z,9.87
2019-05-11T01:36:16.874Z,9.77
2019-05-11T01:38:46.053Z,10.00
2019-05-11T01:41:18.113Z,10.77
2019-05-11T01:43:48.911Z,9.97
2019-05-11T01:46:20.397Z,10.60
2019-05-11T01:48:49.547Z,10.43
2019-05-11T01:51:22.323Z,10.30
2019-05-11T01:53:51.635Z,11.03
2019-05-11T01:56:21.828Z,12.00
2019-05-11T01:58:51.888Z,11.53
2019-05-11T02:01:21.083Z,10.90
2019-05-11T02:03:50.591Z,11.20
2019-05-11T02:06:20.812Z,10.43
2019-05-11T02:08:52.538Z,11.00
2019-05-11T02:11:41.643Z,11.77
2019-05-11T02:14:10.480Z,11.47
2019-05-11T02:16:40.234Z,12.27
2019-05-11T02:19:17.437Z,10.43
2019-05-11T02:21:47.694Z,10.67
2019-05-11T02:24:18.224Z,12.13
2019-05-11T02:26:49.120Z,11.83
2019-05-11T02:29:22.337Z,12.13
2019-05-11T02:31:50.429Z,9.20
2019-05-11T02:34:27.484Z,9.00
2019-05-11T02:36:57.512Z,10.87
2019-05-11T02:39:32.219Z,12.37
2019-05-11T02:42:03.535Z,11.10
2019-05-11T02:44:52.639Z,8.43
2019-05-11T02:47:24.363Z,6.30
2019-05-11T02:49:53.005Z,6.13
2019-05-11T02:52:27.796Z,6.20
2019-05-11T02:55:02.284Z,5.43
2019-05-11T02:57:33.776Z,6.00
2019-05-11T03:00:05.668Z,5.07
2019-05-11T03:02:39.093Z,5.40
2019-05-11T03:05:12.673Z,4.50
2019-05-11T03:07:48.076Z,4.73
2019-05-11T03:10:19.073Z,4.60
2019-05-11T03:15:39.906Z,6.03
2019-05-11T03:18:12.506Z,6.63
2019-05-11T03:20:43.360Z,8.13
2019-05-11T03:23:14.870Z,10.03
2019-05-11T03:25:45.589Z,11.23
2019-05-11T03:28:17.104Z,11.77
2019-05-11T03:30:51.725Z,13.40
2019-05-11T03:33:22.152Z,12.33
2019-05-11T03:35:52.904Z,12.30
2019-05-11T03:38:22.956Z,15.43
2019-05-11T03:40:53.681Z,15.13
2019-05-11T03:43:25.611Z,18.37
2019-05-11T03:45:56.535Z,16.20
2019-05-11T03:48:27.046Z,15.43
2019-05-11T03:50:59.277Z,18.00
2019-05-11T03:53:48.659Z,16.37
2019-05-11T03:56:18.290Z,16.80
2019-05-11T03:58:50.131Z,15.93
2019-05-11T04:01:24.620Z,15.17
2019-05-11T04:03:53.192Z,14.80
2019-05-11T04:06:21.652Z,16.37
2019-05-11T04:08:54.956Z,15.80
2019-05-11T04:11:23.641Z,15.17
2019-05-11T04:13:52.142Z,16.43
2019-05-11T04:16:20.612Z,15.63
2019-05-11T04:18:50.697Z,16.13
2019-05-11T04:21:20.830Z,14.20
2019-05-11T04:23:49.536Z,16.07
2019-05-11T04:26:18.423Z,15.13
2019-05-11T04:28:48.185Z,15.57
2019-05-11T04:31:16.877Z,13.40
2019-05-11T04:33:45.749Z,13.43
2019-05-11T04:36:14.222Z,15.27
2019-05-11T04:38:42.802Z,16.00
2019-05-11T04:41:11.686Z,17.13
2019-05-11T04:43:43.252Z,17.07
2019-05-11T04:46:11.719Z,18.53
2019-05-11T04:48:43.222Z,17.50
2019-05-11T04:51:12.336Z,17.47
2019-05-11T04:53:41.044Z,15.20
2019-05-11T04:56:09.522Z,18.23
2019-05-11T04:58:38.525Z,14.57
2019-05-11T05:01:06.950Z,16.73
2019-05-11T05:03:40.898Z,15.07
2019-05-11T05:06:22.046Z,14.97
2019-05-11T05:08:38.489Z,15.73
2019-05-11T05:11:06.921Z,14.97
2019-05-11T05:13:35.976Z,13.87
2019-05-11T05:16:04.676Z,14.03
2019-05-11T05:18:37.907Z,13.37
2019-05-11T05:21:06.757Z,13.20
2019-05-11T05:23:38.412Z,12.60
2019-05-11T05:26:07.016Z,11.37
2019-05-11T05:28:35.740Z,12.97
2019-05-11T05:31:23.107Z,12.97
2019-05-11T05:33:51.718Z,10.90
2019-05-11T05:36:20.665Z,10.70
2019-05-11T05:38:49.278Z,11.63
2019-05-11T05:41:17.827Z,10.93
2019-05-11T05:43:46.326Z,10.53
2019-05-11T05:46:16.335Z,9.80
2019-05-11T05:48:45.841Z,10.20
2019-05-11T05:51:16.813Z,11.37
2019-05-11T05:53:45.634Z,9.77
2019-05-11T05:56:14.572Z,8.57
2019-05-11T05:58:43.475Z,9.27
2019-05-11T06:01:13.490Z,8.50
2019-05-11T06:03:42.314Z,9.37
2019-05-11T06:06:11.445Z,9.00
2019-05-11T06:08:43.143Z,10.60
2019-05-11T06:11:10.814Z,9.70
2019-05-11T06:13:44.994Z,11.30
2019-05-11T06:16:10.961Z,10.30
2019-05-11T06:18:39.749Z,10.83
2019-05-11T06:21:08.693Z,9.97
2019-05-11T06:23:56.798Z,11.33
2019-05-11T06:26:25.701Z,12.33
2019-05-11T06:28:54.561Z,11.57
2019-05-11T06:31:27.899Z,10.73
2019-05-11T06:34:01.400Z,11.73
2019-05-11T06:36:30.338Z,11.10
2019-05-11T06:39:53.898Z,10.53
2019-05-11T06:51:09.533Z,9.17
2019-05-11T06:56:42.264Z,11.20
2019-05-11T06:59:15.747Z,10.50
2019-05-11T07:01:51.725Z,10.80
2019-05-11T07:04:41.556Z,11.47
2019-05-11T07:07:05.827Z,11.40
2019-05-11T07:09:42.811Z,11.83
2019-05-11T07:12:22.299Z,12.27
2019-05-11T07:15:07.404Z,13.60
2019-05-11T07:17:46.460Z,12.80
2019-05-11T07:20:18.411Z,14.03
2019-05-11T07:22:52.779Z,13.30
2019-05-11T07:25:35.758Z,13.70
2019-05-11T07:28:43.183Z,15.13
2019-05-11T07:31:17.492Z,17.47
2019-05-11T07:33:49.239Z,15.57
2019-05-11T07:36:22.919Z,17.83
2019-05-11T07:38:51.792Z,16.00
2019-05-11T07:41:25.048Z,17.67
2019-05-11T07:43:58.782Z,16.20
2019-05-11T07:46:43.789Z,14.73
2019-05-11T07:49:03.387Z,15.17
2019-05-11T07:51:34.541Z,15.20
2019-05-11T07:54:08.255Z,15.73
2019-05-11T07:56:43.198Z,15.93
2019-05-11T07:59:18.221Z,17.30
2019-05-11T08:01:49.491Z,17.90
2019-05-11T08:04:32.833Z,18.10
2019-05-11T08:07:10.902Z,15.80
2019-05-11T08:09:45.000Z,18.67
2019-05-11T08:12:22.478Z,16.43
2019-05-11T08:15:02.649Z,15.90
2019-05-11T08:17:34.047Z,17.07
2019-05-11T08:20:08.524Z,16.13
2019-05-11T08:22:42.881Z,19.30
2019-05-11T08:25:18.350Z,18.10
2019-05-11T08:27:52.502Z,16.93
2019-05-11T08:30:32.245Z,15.80
2019-05-11T08:33:09.255Z,15.47
2019-05-11T08:35:50.457Z,14.10
2019-05-11T08:38:25.415Z,14.13
2019-05-11T08:40:59.058Z,14.47
2019-05-11T08:43:40.949Z,13.43
2019-05-11T08:46:13.356Z,13.60
2019-05-11T08:48:47.901Z,13.97
2019-05-11T08:51:27.967Z,13.53
2019-05-11T08:54:00.274Z,13.77
2019-05-11T08:56:38.365Z,11.63
2019-05-11T08:59:10.302Z,11.70
2019-05-11T09:01:45.239Z,11.27
2019-05-11T09:04:18.237Z,10.50
2019-05-11T09:06:53.569Z,8.77
2019-05-11T09:09:30.774Z,9.20
2019-05-11T09:12:10.628Z,9.33
2019-05-11T09:14:39.667Z,8.67
2019-05-11T09:17:15.141Z,9.37
2019-05-11T09:19:54.559Z,9.07
2019-05-11T09:22:32.011Z,8.60
2019-05-11T09:25:09.007Z,8.63
2019-05-11T09:27:43.581Z,8.27
2019-05-11T09:30:18.625Z,9.10
2019-05-11T09:32:52.037Z,8.27
2019-05-11T09:35:29.013Z,8.27
2019-05-11T09:38:02.665Z,8.87
2019-05-11T09:40:32.782Z,11.70
2019-05-11T09:43:07.933Z,11.67
2019-05-11T09:46:08.316Z,11.33
2019-05-11T09:48:59.013Z,11.33
2019-05-11T09:51:31.108Z,12.90
2019-05-11T09:54:02.831Z,13.37
2019-05-11T09:56:37.969Z,12.80
2019-05-11T09:59:08.580Z,14.63
2019-05-11T10:01:41.277Z,13.77
2019-05-11T10:04:12.832Z,14.53
2019-05-11T10:06:43.150Z,14.07
2019-05-11T10:09:13.864Z,14.07
2019-05-11T10:11:48.040Z,13.43
2019-05-11T10:14:23.261Z,14.03
2019-05-11T10:16:55.521Z,11.03
2019-05-11T10:19:25.649Z,12.07
2019-05-11T10:21:54.820Z,13.67
2019-05-11T10:24:24.685Z,13.77
2019-05-11T10:26:53.662Z,13.27
2019-05-11T10:29:23.316Z,12.17
2019-05-11T10:31:58.487Z,14.17
2019-05-11T10:34:35.393Z,13.20
2019-05-11T10:37:08.755Z,13.70
2019-05-11T10:39:39.736Z,13.80
2019-05-11T10:42:12.087Z,14.63
2019-05-11T10:44:49.871Z,14.03
2019-05-11T10:47:20.433Z,13.33
2019-05-11T10:49:59.370Z,12.47
2019-05-11T10:52:28.820Z,11.80
2019-05-11T10:54:58.805Z,12.87
2019-05-11T10:57:30.767Z,13.07
2019-05-11T11:00:01.466Z,11.83
2019-05-11T11:02:32.532Z,13.50
2019-05-11T11:05:01.862Z,12.23
2019-05-11T11:07:38.336Z,13.27
2019-05-11T11:10:08.955Z,12.43
2019-05-11T11:12:45.958Z,11.47
2019-05-11T11:15:18.032Z,14.77
2019-05-11T11:17:48.614Z,12.83
2019-05-11T11:23:12.542Z,12.97
2019-05-11T11:25:42.441Z,13.37
2019-05-11T11:28:11.433Z,15.63
2019-05-11T11:30:42.365Z,13.10
2019-05-11T11:33:13.219Z,16.93
2019-05-11T11:35:42.418Z,18.60
2019-05-11T11:38:18.135Z,20.67
2019-05-11T11:40:48.172Z,22.03
2019-05-11T11:43:19.001Z,24.93
2019-05-11T11:45:48.608Z,26.77
2019-05-11T11:48:18.866Z,27.63
2019-05-11T11:50:49.535Z,26.67
2019-05-11T11:53:22.798Z,27.97
2019-05-11T11:55:54.433Z,28.37
2019-05-11T11:58:27.690Z,27.20
2019-05-11T12:00:59.862Z,25.87
2019-05-11T12:03:29.459Z,28.30
2019-05-11T12:06:00.219Z,26.23
2019-05-11T12:08:29.163Z,26.13
2019-05-11T12:10:59.059Z,26.07
2019-05-11T12:13:29.803Z,26.87
2019-05-11T12:15:59.493Z,28.00
2019-05-11T12:18:32.624Z,29.50
2019-05-11T12:21:01.499Z,29.10
2019-05-11T12:23:33.782Z,24.63
2019-05-11T12:26:02.663Z,25.50
2019-05-11T12:28:32.486Z,26.53
2019-05-11T12:31:03.201Z,26.20
2019-05-11T12:33:32.209Z,27.43
2019-05-11T12:36:09.838Z,26.07
2019-05-11T12:38:38.886Z,26.33
2019-05-11T12:41:15.928Z,28.40
2019-05-11T12:43:55.214Z,27.70
2019-05-11T12:46:32.350Z,29.10
2019-05-11T12:49:01.847Z,28.47
2019-05-11T12:51:31.678Z,23.90
2019-05-11T12:54:02.856Z,23.10
2019-05-11T12:56:32.424Z,22.80
2019-05-11T12:59:02.968Z,20.53
2019-05-11T13:01:34.778Z,20.80
2019-05-11T13:04:08.914Z,23.23
2019-05-11T13:06:41.494Z,22.73
2019-05-11T13:09:13.637Z,21.70
2019-05-11T13:11:43.832Z,22.13
2019-05-11T13:14:12.905Z,23.67
2019-05-11T13:16:41.823Z,23.03
2019-05-11T13:19:17.443Z,25.80
2019-05-11T13:21:49.105Z,23.93
2019-05-11T13:24:28.231Z,24.97
2019-05-11T13:26:59.611Z,23.50
2019-05-11T13:29:28.827Z,22.73
2019-05-11T13:32:04.798Z,24.73
2019-05-11T13:34:47.849Z,25.20
2019-05-11T13:37:15.210Z,23.73
2019-05-11T13:39:54.663Z,26.87
2019-05-11T13:42:29.904Z,26.80
2019-05-11T13:45:03.241Z,27.20
2019-05-11T13:47:48.504Z,25.33
2019-05-11T13:50:08.250Z,25.33
2019-05-11T13:52:39.417Z,28.07
2019-05-11T13:55:12.212Z,27.57
2019-05-11T13:57:42.948Z,27.23
2019-05-11T14:00:12.425Z,26.97
2019-05-11T14:02:45.751Z,26.60
2019-05-11T14:05:18.191Z,23.70
2019-05-11T14:07:48.342Z,23.63
2019-05-11T14:10:18.286Z,21.30
2019-05-11T14:12:49.144Z,21.13
2019-05-11T14:15:21.921Z,21.00
2019-05-11T14:18:04.734Z,19.67
2019-05-11T14:20:23.415Z,20.53
2019-05-11T14:22:53.294Z,19.13
2019-05-11T14:25:22.372Z,19.47
2019-05-11T14:28:08.183Z,18.80
2019-05-11T14:31:08.149Z,19.30
2019-05-11T14:36:22.884Z,16.43
2019-05-11T14:39:00.135Z,16.03
2019-05-11T14:41:38.121Z,15.33
2019-05-11T14:44:28.529Z,16.23
2019-05-11T14:47:24.435Z,16.57
2019-05-11T14:50:05.490Z,15.13
2019-05-11T14:52:49.585Z,17.00
2019-05-11T14:55:25.263Z,15.93
2019-05-11T14:58:01.732Z,12.80
2019-05-11T15:00:42.634Z,15.60
2019-05-11T15:03:09.753Z,13.70
2019-05-11T15:05:41.543Z,14.57
2019-05-11T15:08:17.846Z,14.30
2019-05-11T15:10:48.802Z,14.27
2019-05-11T15:13:21.460Z,14.27
2019-05-11T15:15:55.277Z,15.43
2019-05-11T15:18:38.651Z,15.17
2019-05-11T15:21:04.738Z,14.67
2019-05-11T15:23:37.773Z,14.27
2019-05-11T15:26:10.144Z,13.60
2019-05-11T15:28:40.098Z,14.00
2019-05-11T15:31:27.713Z,13.13
2019-05-11T15:34:01.836Z,13.30
2019-05-11T15:36:38.423Z,13.57
2019-05-11T15:39:09.920Z,13.03
2019-05-11T15:41:47.813Z,11.20
2019-05-11T15:44:18.072Z,10.33
2019-05-11T15:46:51.438Z,9.87
2019-05-11T15:49:23.992Z,10.50
2019-05-11T15:51:57.768Z,9.77
2019-05-11T15:54:28.829Z,9.20
2019-05-11T15:56:59.933Z,9.40
2019-05-11T15:59:30.536Z,10.07
2019-05-11T16:02:12.411Z,10.93
2019-05-11T16:04:41.708Z,10.63
2019-05-11T16:07:18.789Z,10.57
2019-05-11T16:09:49.228Z,11.53
2019-05-11T16:12:23.730Z,11.70
2019-05-11T16:14:53.625Z,11.33
2019-05-11T16:17:31.942Z,11.33
2019-05-11T16:20:01.638Z,11.70
2019-05-11T16:22:29.139Z,11.47
2019-05-11T16:24:58.398Z,11.63
2019-05-11T16:27:28.522Z,10.90
2019-05-11T16:29:58.068Z,11.70
2019-05-11T16:32:43.635Z,10.57
2019-05-11T16:35:13.293Z,10.23
2019-05-11T16:38:00.022Z,10.70
2019-05-11T16:40:33.356Z,9.27
2019-05-11T16:43:08.397Z,9.20
2019-05-11T16:45:42.534Z,9.33
2019-05-11T16:48:14.609Z,9.17
2019-05-11T16:50:52.705Z,9.03
2019-05-11T16:53:29.019Z,8.33
2019-05-11T16:55:58.461Z,9.33
2019-05-11T16:58:30.679Z,8.57
2019-05-11T17:01:00.592Z,9.13
2019-05-11T17:03:32.861Z,8.97
2019-05-11T17:06:03.094Z,8.50
2019-05-11T17:08:34.668Z,9.03
2019-05-11T17:11:03.826Z,8.40
2019-05-11T17:13:37.761Z,9.37
2019-05-11T17:16:08.419Z,9.83
2019-05-11T17:18:48.606Z,9.57
2019-05-11T17:21:18.338Z,10.90
2019-05-11T17:23:53.478Z,9.43
2019-05-11T17:26:27.830Z,10.10
2019-05-11T17:29:01.226Z,10.00
2019-05-11T17:31:31.883Z,10.20
2019-05-11T17:34:08.985Z,9.83
2019-05-11T17:36:36.868Z,9.67
2019-05-11T17:39:14.816Z,10.33
2019-05-11T17:41:48.553Z,10.83
2019-05-11T17:44:42.138Z,9.77
2019-05-11T17:46:58.418Z,9.10
2019-05-11T17:49:32.180Z,9.47
2019-05-11T17:52:01.537Z,8.93
2019-05-11T17:54:33.985Z,9.27
2019-05-11T17:57:14.298Z,9.13
2019-05-11T17:59:47.637Z,9.33
2019-05-11T18:02:19.439Z,10.47
2019-05-11T18:04:58.452Z,9.00
2019-05-11T18:07:30.665Z,9.10
2019-05-11T18:09:58.733Z,8.67
2019-05-11T18:12:31.173Z,8.53
2019-05-11T18:15:00.699Z,9.60
2019-05-11T18:20:33.702Z,8.77
2019-05-11T18:23:04.593Z,9.10
2019-05-11T18:25:38.997Z,8.90
2019-05-11T18:28:14.246Z,9.60
2019-05-11T18:30:42.985Z,8.30
2019-05-11T18:33:12.445Z,8.20
2019-05-11T18:35:41.800Z,8.97
2019-05-11T18:38:11.250Z,9.83
2019-05-11T18:40:41.412Z,8.13
2019-05-11T18:43:13.325Z,8.87
2019-05-11T18:45:42.320Z,10.10
2019-05-11T18:48:18.516Z,9.87
2019-05-11T18:50:49.754Z,9.93
2019-05-11T18:53:21.695Z,10.30
2019-05-11T18:55:51.135Z,11.00
2019-05-11T18:58:24.384Z,10.90
2019-05-11T19:01:12.545Z,10.70
2019-05-11T19:03:47.900Z,10.50
2019-05-11T19:06:18.417Z,11.00
2019-05-11T19:08:50.411Z,11.87
2019-05-11T19:11:22.376Z,11.80
2019-05-11T19:13:51.503Z,12.23
2019-05-11T19:16:33.167Z,12.53
2019-05-11T19:19:05.138Z,10.90
2019-05-11T19:21:37.135Z,11.73
2019-05-11T19:24:13.065Z,12.30
2019-05-11T19:26:42.542Z,11.87
2019-05-11T19:29:11.890Z,10.97
2019-05-11T19:31:47.645Z,13.70
2019-05-11T19:34:21.022Z,12.80
2019-05-11T19:37:08.719Z,13.70
2019-05-11T19:39:39.324Z,13.83
2019-05-11T19:42:14.107Z,13.27
2019-05-11T19:44:43.740Z,13.70
2019-05-11T19:47:18.206Z,14.13
2019-05-11T19:49:54.760Z,13.47
2019-05-11T19:52:31.223Z,12.87
2019-05-11T19:55:03.861Z,13.00
2019-05-11T19:57:35.178Z,13.27
2019-05-11T20:00:10.345Z,13.67
2019-05-11T20:02:42.784Z,13.37
2019-05-11T20:05:14.425Z,13.87
2019-05-11T20:07:45.356Z,12.97
2019-05-11T20:10:29.084Z,12.90
2019-05-11T20:12:58.963Z,10.77
2019-05-11T20:15:30.877Z,10.50
2019-05-11T20:18:02.449Z,9.77
2019-05-11T20:20:37.615Z,9.60
2019-05-11T20:23:14.208Z,8.77
2019-05-11T20:25:44.856Z,9.67
2019-05-11T20:28:15.172Z,9.73
2019-05-11T20:30:48.047Z,9.03
2019-05-11T20:33:24.582Z,9.47
2019-05-11T20:35:51.552Z,10.90
2019-05-11T20:38:22.154Z,9.90
2019-05-11T20:58:38.872Z,7.97
2019-05-11T21:01:09.844Z,6.50
2019-05-11T21:06:29.336Z,7.03
2019-05-11T21:08:58.864Z,5.80
2019-05-11T21:12:13.422Z,5.77
2019-05-11T21:14:43.777Z,4.57
2019-05-11T21:17:12.801Z,5.20
2019-05-11T21:19:42.771Z,5.27
2019-05-11T21:22:16.767Z,5.80
2019-05-11T21:25:31.210Z,6.17
2019-05-11T21:28:00.422Z,5.87
2019-05-11T21:30:34.058Z,5.67
2019-05-11T21:33:38.942Z,5.13
2019-05-11T21:36:09.475Z,5.43
2019-05-11T21:38:41.123Z,5.10
2019-05-11T21:41:17.526Z,5.90
2019-05-11T21:43:48.335Z,5.77
2019-05-11T21:46:56.227Z,6.03
2019-05-11T21:49:25.528Z,5.73
2019-05-11T21:52:03.896Z,5.57
2019-05-11T21:54:49.071Z,5.93
2019-05-11T21:58:10.598Z,4.30
2019-05-11T22:00:40.048Z,5.83
2019-05-11T22:03:10.319Z,5.03
2019-05-11T22:05:48.495Z,5.17
2019-05-11T22:08:28.206Z,4.57
2019-05-11T22:18:41.107Z,5.13
2019-05-11T22:21:13.706Z,4.30
2019-05-11T22:23:50.784Z,4.40
2019-05-11T22:27:01.775Z,4.73
2019-05-11T22:29:40.882Z,4.67
2019-05-11T22:32:09.918Z,4.17
2019-05-11T22:34:44.819Z,3.77
2019-05-11T22:37:16.064Z,4.33
2019-05-11T22:39:44.953Z,4.10
2019-05-11T22:42:13.936Z,3.13
2019-05-11T22:44:43.008Z,3.90
2019-05-11T22:48:02.545Z,3.40
2019-05-11T22:50:31.863Z,3.40
2019-05-11T22:53:02.293Z,3.10
2019-05-11T22:55:58.421Z,3.10
2019-05-11T22:58:31.942Z,3.17
2019-05-11T23:01:01.336Z,2.77
2019-05-11T23:03:30.619Z,2.73
2019-05-11T23:05:59.610Z,2.80
2019-05-11T23:08:30.381Z,3.50
2019-05-11T23:11:12.632Z,2.93
2019-05-11T23:13:42.027Z,3.00
2019-05-11T23:17:02.050Z,2.77
2019-05-11T23:19:31.261Z,3.20
2019-05-11T23:22:00.675Z,3.10
2019-05-11T23:38:39.279Z,2.90
2019-05-11T23:41:23.742Z,3.33
2019-05-11T23:43:47.655Z,3.67
2019-05-11T23:46:21.152Z,3.20
2019-05-11T23:48:50.319Z,3.23
2019-05-11T23:51:20.347Z,3.13
2019-05-11T23:53:52.649Z,3.17
2019-05-11T23:56:29.726Z,3.00
2019-05-11T23:58:58.591Z,3.20
